Time;durP1;ratioP1;P1;durP2;ratioP2;P2;SDS_P1;SDS_P2;PMS_P1;PMS_P2;Temp;Humidity;BMP_temperature;BMP_pressure;BME280_temperature;BME280_humidity;BME280_pressure;Samples;Min_cycle;Max_cycle;Signal;HPM_P1;HPM_P2
2022/11/13 00:02:19;;;;;;;10.40;8.80;;;;;;;;;;108915;1269;22597;-30
2022/11/13 00:04:51;;;;;;;9.40;8.30;;;;;;;;;;108921;1262;22493;-30
2022/11/13 00:07:24;;;;;;;9.80;8.80;;;;;;;;;;108842;1269;22645;-29
2022/11/13 00:09:56;;;;;;;9.40;8.20;;;;;;;;;;108875;1267;22586;-29
2022/11/13 00:12:30;;;;;;;9.80;8.60;;;;;;;;;;108876;1263;25419;-30
2022/11/13 00:15:03;;;;;;;10.60;9.30;;;;;;;;;;108889;1262;22589;-30
2022/11/13 00:17:35;;;;;;;9.90;8.80;;;;;;;;;;108888;1260;22543;-30
2022/11/13 00:20:10;;;;;;;9.90;8.70;;;;;;;;;;108912;1259;22686;-30
2022/11/13 00:22:45;;;;;;;9.80;8.80;;;;;;;;;;108922;1263;22538;-30
2022/11/13 00:25:18;;;;;;;9.30;8.20;;;;;;;;;;108942;1269;23958;-29
2022/11/13 00:27:50;;;;;;;9.60;8.60;;;;;;;;;;108856;1264;25438;-30
2022/11/13 00:30:22;;;;;;;9.60;8.50;;;;;;;;;;108868;1267;23824;-29
2022/11/13 00:32:57;;;;;;;9.40;8.40;;;;;;;;;;108847;1264;24150;-30
2022/11/13 00:35:29;;;;;;;9.40;8.40;;;;;;;;;;108849;1263;22681;-30
2022/11/13 00:38:03;;;;;;;9.50;8.30;;;;;;;;;;108885;1267;22587;-30
2022/11/13 00:40:36;;;;;;;9.30;8.20;;;;;;;;;;108995;1265;23899;-29
2022/11/13 00:43:08;;;;;;;9.50;7.50;;;;;;;;;;108962;1260;21953;-30
2022/11/13 00:45:40;;;;;;;10.00;8.20;;;;;;;;;;108985;1266;22649;-30
2022/11/13 00:48:13;;;;;;;9.20;8.20;;;;;;;;;;108901;1261;22545;-30
2022/11/13 00:50:45;;;;;;;9.20;8.20;;;;;;;;;;108683;1263;331149;-30
2022/11/13 00:53:18;;;;;;;9.50;8.20;;;;;;;;;;108911;1269;22535;-29
2022/11/13 00:55:51;;;;;;;9.60;8.10;;;;;;;;;;108894;1264;22566;-30
2022/11/13 00:58:24;;;;;;;9.50;8.50;;;;;;;;;;108934;1266;25003;-29
2022/11/13 01:01:02;;;;;;;9.80;8.30;;;;;;;;;;108993;1260;24671;-30
2022/11/13 01:03:36;;;;;;;9.10;8.10;;;;;;;;;;108975;1260;22594;-30
2022/11/13 01:06:18;;;;;;;9.20;8.20;;;;;;;;;;108986;1260;22513;-30
2022/11/13 01:08:53;;;;;;;9.10;8.20;;;;;;;;;;108929;1260;24851;-30
2022/11/13 01:11:30;;;;;;;9.20;8.10;;;;;;;;;;108879;1263;25238;-30
2022/11/13 01:14:02;;;;;;;9.00;8.00;;;;;;;;;;108906;1263;22532;-30
2022/11/13 01:16:35;;;;;;;9.00;8.00;;;;;;;;;;108898;1269;22539;-30
2022/11/13 01:19:07;;;;;;;9.20;7.80;;;;;;;;;;108909;1263;22609;-30
2022/11/13 01:21:39;;;;;;;8.90;7.70;;;;;;;;;;108990;1260;22538;-29
2022/11/13 01:24:12;;;;;;;8.50;7.60;;;;;;;;;;108989;1268;23738;-30
2022/11/13 01:26:44;;;;;;;9.70;8.10;;;;;;;;;;108984;1262;22576;-30
2022/11/13 01:29:16;;;;;;;8.90;8.00;;;;;;;;;;108890;1266;23820;-30
2022/11/13 01:31:49;;;;;;;9.40;8.00;;;;;;;;;;108894;1262;23818;-30
2022/11/13 01:34:21;;;;;;;9.10;8.20;;;;;;;;;;108883;1264;23095;-30
2022/11/13 01:36:54;;;;;;;9.00;7.30;;;;;;;;;;108923;1267;22705;-29
2022/11/13 01:39:26;;;;;;;9.20;8.20;;;;;;;;;;108922;1262;22545;-30
2022/11/13 01:41:59;;;;;;;9.60;7.90;;;;;;;;;;108971;1266;22670;-30
2022/11/13 01:44:52;;;;;;;9.20;8.00;;;;;;;;;;108991;1263;22546;-30
2022/11/13 01:47:25;;;;;;;9.20;8.10;;;;;;;;;;109011;1256;22772;-30
2022/11/13 01:50:01;;;;;;;9.00;7.70;;;;;;;;;;108908;1269;22531;-30
2022/11/13 01:52:39;;;;;;;9.30;8.10;;;;;;;;;;108914;1256;22554;-29
2022/11/13 01:55:16;;;;;;;8.70;7.50;;;;;;;;;;108902;1260;22670;-29
2022/11/13 01:57:52;;;;;;;8.90;7.30;;;;;;;;;;108885;1268;22544;-30
2022/11/13 02:00:24;;;;;;;9.00;7.90;;;;;;;;;;108938;1260;22559;-30
2022/11/13 02:02:57;;;;;;;9.80;8.20;;;;;;;;;;109014;1260;24192;-30
2022/11/13 02:05:30;;;;;;;8.90;7.80;;;;;;;;;;109018;1261;22549;-30
2022/11/13 02:08:04;;;;;;;8.80;7.80;;;;;;;;;;108971;1266;22548;-30
2022/11/13 02:10:37;;;;;;;9.40;7.80;;;;;;;;;;108897;1261;22537;-30
2022/11/13 02:13:10;;;;;;;9.10;7.60;;;;;;;;;;108899;1267;22684;-30
2022/11/13 02:15:44;;;;;;;8.90;7.50;;;;;;;;;;108929;1264;24086;-30
2022/11/13 02:18:18;;;;;;;9.50;7.90;;;;;;;;;;108954;1260;22546;-29
2022/11/13 02:21:04;;;;;;;9.40;7.80;;;;;;;;;;108932;1266;22547;-30
2022/11/13 02:23:51;;;;;;;8.80;7.60;;;;;;;;;;108966;1266;22670;-30
2022/11/13 02:26:26;;;;;;;9.60;7.80;;;;;;;;;;109003;1263;22549;-29
2022/11/13 02:28:59;;;;;;;9.20;7.80;;;;;;;;;;108948;1266;22839;-30
2022/11/13 02:31:31;;;;;;;8.70;7.60;;;;;;;;;;108894;1264;23893;-30
2022/11/13 02:34:05;;;;;;;8.90;7.80;;;;;;;;;;108921;1262;22541;-30
2022/11/13 02:36:40;;;;;;;9.50;8.20;;;;;;;;;;108901;1262;22546;-30
2022/11/13 02:39:15;;;;;;;;;;;;;;;;;;108880;1266;22512;-30
2022/11/13 02:41:47;;;;;;;9.00;7.60;;;;;;;;;;108943;1262;22538;-30
2022/11/13 02:44:19;;;;;;;8.60;7.50;;;;;;;;;;108973;1257;22499;-30
2022/11/13 02:46:52;;;;;;;9.20;7.90;;;;;;;;;;108993;1266;22499;-30
2022/11/13 02:49:24;;;;;;;9.20;8.20;;;;;;;;;;108969;1262;22544;-29
2022/11/13 02:51:56;;;;;;;8.80;7.70;;;;;;;;;;108949;1259;25258;-29
2022/11/13 02:54:29;;;;;;;9.30;8.20;;;;;;;;;;108922;1262;25158;-30
2022/11/13 02:57:01;;;;;;;9.10;8.00;;;;;;;;;;108886;1267;25398;-30
2022/11/13 02:59:34;;;;;;;8.70;7.80;;;;;;;;;;108901;1263;24864;-30
2022/11/13 03:02:06;;;;;;;8.80;7.50;;;;;;;;;;108965;1252;23873;-29
2022/11/13 03:04:39;;;;;;;9.10;8.10;;;;;;;;;;108912;1260;24004;-30
2022/11/13 03:07:12;;;;;;;8.80;7.90;;;;;;;;;;108953;1259;22669;-30
2022/11/13 03:09:45;;;;;;;9.50;8.00;;;;;;;;;;108926;1262;22629;-30
2022/11/13 03:12:19;;;;;;;9.10;8.00;;;;;;;;;;108886;1263;22523;-30
2022/11/13 03:14:51;;;;;;;9.20;7.60;;;;;;;;;;108867;1263;22551;-29
2022/11/13 03:17:24;;;;;;;8.90;7.80;;;;;;;;;;108906;1262;22526;-29
2022/11/13 03:19:56;;;;;;;8.40;7.50;;;;;;;;;;108855;1263;22529;-30
2022/11/13 03:22:29;;;;;;;8.90;7.70;;;;;;;;;;108919;1261;22835;-30
2022/11/13 03:25:00;;;;;;;;;;;;;;;;;;108981;1263;22535;-30
2022/11/13 03:27:34;;;;;;;9.40;7.80;;;;;;;;;;108955;1262;22588;-30
2022/11/13 03:30:14;;;;;;;10.40;8.50;;;;;;;;;;108910;1263;22517;-30
2022/11/13 03:32:46;;;;;;;8.90;7.30;;;;;;;;;;108862;1263;22551;-30
2022/11/13 03:35:21;;;;;;;8.40;7.20;;;;;;;;;;108907;1264;22594;-30
2022/11/13 03:37:54;;;;;;;9.10;7.90;;;;;;;;;;108894;1263;22720;-30
2022/11/13 03:40:26;;;;;;;8.60;7.30;;;;;;;;;;108847;1262;25260;-30
2022/11/13 03:42:59;;;;;;;9.40;7.60;;;;;;;;;;108977;1262;22676;-29
2022/11/13 03:45:31;;;;;;;8.50;7.10;;;;;;;;;;108980;1260;22520;-29
2022/11/13 03:48:04;;;;;;;8.60;7.40;;;;;;;;;;108954;1262;22602;-29
2022/11/13 03:50:36;;;;;;;9.80;8.10;;;;;;;;;;108892;1261;25989;-31
2022/11/13 03:53:09;;;;;;;9.20;7.60;;;;;;;;;;108876;1263;22584;-31
2022/11/13 03:55:42;;;;;;;8.20;7.30;;;;;;;;;;108919;1262;22514;-31
2022/11/13 03:58:14;;;;;;;8.70;7.60;;;;;;;;;;108879;1262;22661;-31
2022/11/13 04:00:49;;;;;;;8.90;7.80;;;;;;;;;;108867;1262;22535;-31
2022/11/13 04:03:22;;;;;;;9.10;8.00;;;;;;;;;;108940;1263;23722;-31
2022/11/13 04:05:56;;;;;;;8.50;7.50;;;;;;;;;;108973;1260;22538;-31
2022/11/13 04:08:29;;;;;;;8.70;7.30;;;;;;;;;;108950;1261;22686;-31
2022/11/13 04:11:11;;;;;;;8.50;7.50;;;;;;;;;;108896;1263;22586;-31
2022/11/13 04:13:43;;;;;;;8.40;7.40;;;;;;;;;;108918;1262;22603;-31
2022/11/13 04:16:15;;;;;;;8.70;7.70;;;;;;;;;;108902;1269;22788;-31
2022/11/13 04:18:48;;;;;;;8.80;7.60;;;;;;;;;;108866;1262;22591;-31
2022/11/13 04:21:20;;;;;;;9.00;7.70;;;;;;;;;;108916;1264;23891;-31
2022/11/13 04:23:56;;;;;;;8.30;7.40;;;;;;;;;;108937;1253;23913;-31
2022/11/13 04:26:28;;;;;;;8.90;7.30;;;;;;;;;;108987;1263;22560;-31
2022/11/13 04:29:01;;;;;;;9.80;7.90;;;;;;;;;;108963;1261;22595;-31
2022/11/13 04:31:33;;;;;;;8.70;7.40;;;;;;;;;;108915;1264;22740;-31
2022/11/13 04:34:05;;;;;;;8.70;7.70;;;;;;;;;;108788;1263;22603;-30
2022/11/13 04:36:38;;;;;;;9.00;7.70;;;;;;;;;;108916;1263;22557;-31
2022/11/13 04:39:10;;;;;;;9.50;7.70;;;;;;;;;;108860;1264;22540;-31
2022/11/13 04:44:33;;;;;;;9.00;7.50;;;;;;;;;;108964;1262;25670;-31
2022/11/13 04:47:05;;;;;;;9.20;7.60;;;;;;;;;;108962;1263;22549;-31
2022/11/13 04:49:37;;;;;;;8.70;7.60;;;;;;;;;;108950;1263;25269;-31
2022/11/13 04:52:10;;;;;;;8.40;7.20;;;;;;;;;;108881;1262;25312;-31
2022/11/13 04:54:43;;;;;;;9.40;7.90;;;;;;;;;;108893;1262;22544;-31
2022/11/13 04:57:15;;;;;;;9.20;7.80;;;;;;;;;;108886;1262;22553;-31
2022/11/13 04:59:48;;;;;;;9.00;7.90;;;;;;;;;;108921;1264;22603;-31
2022/11/13 05:02:20;;;;;;;8.50;7.60;;;;;;;;;;108837;1259;22548;-32
2022/11/13 05:04:52;;;;;;;9.90;8.10;;;;;;;;;;108976;1253;22582;-31
2022/11/13 05:07:26;;;;;;;8.80;7.80;;;;;;;;;;109012;1260;23823;-31
2022/11/13 05:09:58;;;;;;;9.40;7.70;;;;;;;;;;108992;1263;23832;-31
2022/11/13 05:12:33;;;;;;;8.70;7.50;;;;;;;;;;108919;1262;22513;-31
2022/11/13 05:15:07;;;;;;;8.80;7.40;;;;;;;;;;108892;1262;24184;-31
2022/11/13 05:17:39;;;;;;;8.60;7.10;;;;;;;;;;108891;1262;24039;-31
2022/11/13 05:20:20;;;;;;;9.10;7.90;;;;;;;;;;108951;1261;22548;-31
2022/11/13 05:22:52;;;;;;;9.50;7.60;;;;;;;;;;108904;1262;22649;-30
2022/11/13 05:25:25;;;;;;;9.10;7.30;;;;;;;;;;108942;1253;24022;-31
2022/11/13 05:27:58;;;;;;;8.90;7.60;;;;;;;;;;108938;1261;22633;-31
2022/11/13 05:30:33;;;;;;;11.50;8.60;;;;;;;;;;108914;1260;22622;-31
2022/11/13 05:33:05;;;;;;;9.80;8.40;;;;;;;;;;108761;1263;22687;-30
2022/11/13 05:35:38;;;;;;;10.00;8.50;;;;;;;;;;108913;1262;22499;-31
2022/11/13 05:38:10;;;;;;;10.50;9.00;;;;;;;;;;108907;1262;22506;-31
2022/11/13 05:40:44;;;;;;;11.10;9.20;;;;;;;;;;108928;1262;22533;-31
2022/11/13 05:43:16;;;;;;;11.30;9.70;;;;;;;;;;108913;1262;22606;-31
2022/11/13 05:45:49;;;;;;;11.90;9.20;;;;;;;;;;108955;1262;25266;-31
2022/11/13 05:48:21;;;;;;;11.00;9.00;;;;;;;;;;108992;1263;22558;-31
2022/11/13 05:50:54;;;;;;;11.10;9.30;;;;;;;;;;109006;1262;22536;-31
2022/11/13 05:53:26;;;;;;;11.70;9.30;;;;;;;;;;108914;1263;22589;-31
2022/11/13 05:56:03;;;;;;;10.70;9.20;;;;;;;;;;108932;1262;22530;-31
2022/11/13 05:58:37;;;;;;;11.80;9.50;;;;;;;;;;108899;1262;22553;-32
2022/11/13 06:01:13;;;;;;;12.00;9.20;;;;;;;;;;108879;1263;22548;-31
2022/11/13 06:03:50;;;;;;;12.10;9.10;;;;;;;;;;108895;1262;23683;-31
2022/11/13 06:06:25;;;;;;;10.60;9.30;;;;;;;;;;108980;1253;22546;-31
2022/11/13 06:09:00;;;;;;;11.60;9.30;;;;;;;;;;108967;1262;22709;-31
2022/11/13 06:11:36;;;;;;;10.70;8.80;;;;;;;;;;108968;1262;22519;-31
2022/11/13 06:14:08;;;;;;;11.40;9.50;;;;;;;;;;108897;1263;22518;-31
2022/11/13 06:16:42;;;;;;;10.10;8.50;;;;;;;;;;108883;1262;22566;-31
2022/11/13 06:19:14;;;;;;;10.30;8.40;;;;;;;;;;108888;1262;22543;-31
2022/11/13 06:21:48;;;;;;;10.90;9.00;;;;;;;;;;108869;1256;22608;-31
2022/11/13 06:24:20;;;;;;;10.50;8.40;;;;;;;;;;108912;1262;22683;-31
2022/11/13 06:26:53;;;;;;;10.40;8.80;;;;;;;;;;108950;1263;22524;-31
2022/11/13 06:29:26;;;;;;;10.30;8.60;;;;;;;;;;108949;1262;22489;-31
2022/11/13 06:31:58;;;;;;;10.80;8.40;;;;;;;;;;108973;1254;22599;-31
2022/11/13 06:34:31;;;;;;;10.50;8.20;;;;;;;;;;108898;1260;22579;-31
2022/11/13 06:37:03;;;;;;;9.90;8.20;;;;;;;;;;108887;1261;22693;-31
2022/11/13 06:39:36;;;;;;;10.90;8.50;;;;;;;;;;108896;1263;25264;-31
2022/11/13 06:42:10;;;;;;;10.70;8.40;;;;;;;;;;108903;1262;22664;-32
2022/11/13 06:44:43;;;;;;;10.40;8.40;;;;;;;;;;108893;1263;22572;-31
2022/11/13 06:47:16;;;;;;;10.00;8.10;;;;;;;;;;108999;1260;22501;-31
2022/11/13 06:49:48;;;;;;;10.30;8.20;;;;;;;;;;108983;1262;22587;-31
2022/11/13 06:52:21;;;;;;;10.00;8.40;;;;;;;;;;109036;1257;22619;-31
2022/11/13 06:54:53;;;;;;;9.80;8.20;;;;;;;;;;108896;1260;22572;-31
2022/11/13 06:57:26;;;;;;;9.80;8.30;;;;;;;;;;108911;1262;22554;-31
2022/11/13 06:59:58;;;;;;;9.40;7.90;;;;;;;;;;108908;1261;24209;-31
2022/11/13 07:02:30;;;;;;;10.30;8.30;;;;;;;;;;108915;1262;22586;-31
2022/11/13 07:05:03;;;;;;;10.40;8.60;;;;;;;;;;108900;1262;23690;-31
2022/11/13 07:07:36;;;;;;;10.00;7.90;;;;;;;;;;109029;1263;22538;-31
2022/11/13 07:10:11;;;;;;;10.60;8.30;;;;;;;;;;108965;1261;22552;-31
2022/11/13 07:12:43;;;;;;;9.90;8.80;;;;;;;;;;109012;1262;22551;-31
2022/11/13 07:15:17;;;;;;;9.80;8.40;;;;;;;;;;108907;1261;22618;-31
2022/11/13 07:17:49;;;;;;;9.80;8.50;;;;;;;;;;108902;1262;22562;-32
2022/11/13 07:20:22;;;;;;;10.00;7.90;;;;;;;;;;108924;1259;23013;-31
2022/11/13 07:22:59;;;;;;;9.50;8.40;;;;;;;;;;108955;1262;22611;-31
2022/11/13 07:25:33;;;;;;;10.00;8.20;;;;;;;;;;108961;1262;25254;-31
2022/11/13 07:28:05;;;;;;;9.30;7.80;;;;;;;;;;108954;1263;22550;-31
2022/11/13 07:30:37;;;;;;;10.80;8.50;;;;;;;;;;108973;1262;22646;-31
2022/11/13 07:33:13;;;;;;;9.40;8.30;;;;;;;;;;108977;1262;22739;-31
2022/11/13 07:35:46;;;;;;;9.40;7.90;;;;;;;;;;108921;1262;22549;-31
2022/11/13 07:38:18;;;;;;;10.40;7.90;;;;;;;;;;108879;1256;22489;-31
2022/11/13 07:40:50;;;;;;;9.40;8.10;;;;;;;;;;108914;1259;25399;-31
2022/11/13 07:43:26;;;;;;;9.60;7.90;;;;;;;;;;108848;1262;25479;-31
2022/11/13 07:46:01;;;;;;;10.60;7.90;;;;;;;;;;108899;1263;25453;-31
2022/11/13 07:48:33;;;;;;;9.00;7.70;;;;;;;;;;109012;1263;22554;-31
2022/11/13 07:51:07;;;;;;;9.40;7.80;;;;;;;;;;109011;1253;25392;-31
2022/11/13 07:53:39;;;;;;;10.30;7.90;;;;;;;;;;108972;1261;25407;-31
2022/11/13 07:56:12;;;;;;;9.70;8.10;;;;;;;;;;108849;1260;22566;-31
2022/11/13 07:58:44;;;;;;;9.20;7.60;;;;;;;;;;108884;1262;22532;-31
2022/11/13 08:01:16;;;;;;;9.80;7.90;;;;;;;;;;108900;1262;22504;-31
2022/11/13 08:03:49;;;;;;;9.40;7.80;;;;;;;;;;108882;1262;23837;-31
2022/11/13 08:06:22;;;;;;;9.80;7.70;;;;;;;;;;108891;1260;22563;-31
2022/11/13 08:08:55;;;;;;;9.00;7.50;;;;;;;;;;108987;1257;22534;-31
2022/11/13 08:11:27;;;;;;;9.60;7.80;;;;;;;;;;108979;1263;22621;-31
2022/11/13 08:14:00;;;;;;;10.70;8.40;;;;;;;;;;108956;1262;22613;-31
2022/11/13 08:16:32;;;;;;;8.60;7.30;;;;;;;;;;108939;1262;22657;-31
2022/11/13 08:19:05;;;;;;;9.10;7.90;;;;;;;;;;108905;1263;25219;-32
2022/11/13 08:21:39;;;;;;;9.40;7.70;;;;;;;;;;108907;1262;22520;-31
2022/11/13 08:24:12;;;;;;;9.60;7.70;;;;;;;;;;108927;1262;22597;-31
2022/11/13 08:26:44;;;;;;;9.20;7.30;;;;;;;;;;108920;1256;23722;-31
2022/11/13 08:29:17;;;;;;;9.50;7.50;;;;;;;;;;108954;1253;22586;-31
2022/11/13 08:31:49;;;;;;;8.30;7.30;;;;;;;;;;108978;1261;25401;-31
2022/11/13 08:34:22;;;;;;;9.10;7.40;;;;;;;;;;108963;1263;22550;-31
2022/11/13 08:36:57;;;;;;;8.60;7.10;;;;;;;;;;108891;1262;22540;-31
2022/11/13 08:39:29;;;;;;;9.30;7.40;;;;;;;;;;108874;1262;24203;-31
2022/11/13 08:42:02;;;;;;;8.20;7.30;;;;;;;;;;108909;1262;22551;-31
2022/11/13 08:44:35;;;;;;;8.80;7.50;;;;;;;;;;108882;1262;23858;-31
2022/11/13 08:47:07;;;;;;;9.30;7.40;;;;;;;;;;108915;1262;23197;-31
2022/11/13 08:49:40;;;;;;;8.20;7.00;;;;;;;;;;108969;1253;23760;-31
2022/11/13 08:52:14;;;;;;;8.40;7.30;;;;;;;;;;108610;1261;432432;-31
2022/11/13 08:54:46;;;;;;;8.40;6.90;;;;;;;;;;108952;1262;22507;-31
2022/11/13 08:57:21;;;;;;;8.90;7.00;;;;;;;;;;108885;1262;24114;-31
2022/11/13 08:59:53;;;;;;;8.60;6.80;;;;;;;;;;108899;1262;22563;-31
2022/11/13 09:02:26;;;;;;;8.60;6.40;;;;;;;;;;108877;1263;22662;-31
2022/11/13 09:04:58;;;;;;;8.50;6.90;;;;;;;;;;108870;1260;22582;-31
2022/11/13 09:07:33;;;;;;;8.60;6.80;;;;;;;;;;108929;1261;25270;-31
2022/11/13 09:10:09;;;;;;;7.50;6.10;;;;;;;;;;108961;1262;22500;-31
2022/11/13 09:12:42;;;;;;;8.80;6.60;;;;;;;;;;108989;1257;25718;-31
2022/11/13 09:15:16;;;;;;;8.30;6.40;;;;;;;;;;108987;1261;22537;-31
2022/11/13 09:17:49;;;;;;;8.50;6.70;;;;;;;;;;108938;1253;22496;-32
2022/11/13 09:20:23;;;;;;;8.90;6.80;;;;;;;;;;108909;1259;25928;-31
2022/11/13 09:23:02;;;;;;;8.00;6.60;;;;;;;;;;108900;1260;22540;-31
2022/11/13 09:25:37;;;;;;;8.20;6.60;;;;;;;;;;108911;1262;22758;-31
2022/11/13 09:28:11;;;;;;;7.90;6.50;;;;;;;;;;108882;1261;22490;-31
2022/11/13 09:30:44;;;;;;;8.20;6.20;;;;;;;;;;109000;1259;22564;-31
2022/11/13 09:33:16;;;;;;;7.70;6.30;;;;;;;;;;108971;1262;22549;-31
2022/11/13 09:35:49;;;;;;;8.70;6.90;;;;;;;;;;108943;1259;22686;-32
2022/11/13 09:38:22;;;;;;;7.50;6.00;;;;;;;;;;108887;1261;25417;-31
2022/11/13 09:41:00;;;;;;;7.70;5.70;;;;;;;;;;108965;1262;22698;-31
2022/11/13 09:43:38;;;;;;;8.00;6.40;;;;;;;;;;108920;1262;22552;-31
2022/11/13 09:46:23;;;;;;;7.30;5.90;;;;;;;;;;108896;1262;22550;-32
2022/11/13 09:49:04;;;;;;;8.00;6.30;;;;;;;;;;108958;1262;25387;-31
2022/11/13 09:51:40;;;;;;;10.70;6.90;;;;;;;;;;109058;1262;22734;-31
2022/11/13 09:54:17;;;;;;;9.40;6.20;;;;;;;;;;109010;1263;25203;-31
2022/11/13 09:57:00;;;;;;;8.50;6.50;;;;;;;;;;109063;1262;22534;-31
2022/11/13 09:59:42;;;;;;;8.80;6.20;;;;;;;;;;108947;1261;25880;-31
2022/11/13 10:02:27;;;;;;;11.00;6.20;;;;;;;;;;108956;1261;22520;-31
2022/11/13 10:05:14;;;;;;;9.30;6.60;;;;;;;;;;108992;1262;22516;-31
2022/11/13 10:07:57;;;;;;;9.40;6.40;;;;;;;;;;109017;1262;22712;-31
2022/11/13 10:10:51;;;;;;;8.70;5.90;;;;;;;;;;109102;1256;22611;-31
2022/11/13 10:13:35;;;;;;;8.90;6.20;;;;;;;;;;109047;1256;22542;-30
2022/11/13 10:16:23;;;;;;;10.50;6.50;;;;;;;;;;109047;1261;24179;-31
2022/11/13 10:19:05;;;;;;;8.30;6.10;;;;;;;;;;108958;1261;22512;-31
2022/11/13 10:21:43;;;;;;;8.20;6.10;;;;;;;;;;108839;1265;22540;-31
2022/11/13 10:24:24;;;;;;;9.40;5.90;;;;;;;;;;108929;1260;22501;-31
2022/11/13 10:26:59;;;;;;;8.90;5.90;;;;;;;;;;108930;1260;22539;-31
2022/11/13 10:29:34;;;;;;;7.90;5.50;;;;;;;;;;108969;1257;22545;-31
2022/11/13 10:32:20;;;;;;;8.50;6.00;;;;;;;;;;109055;1263;22573;-31
2022/11/13 10:34:59;;;;;;;7.30;5.40;;;;;;;;;;109032;1253;22557;-31
2022/11/13 10:37:49;;;;;;;7.40;5.10;;;;;;;;;;109031;1261;22540;-31
2022/11/13 10:40:29;;;;;;;7.80;5.60;;;;;;;;;;108880;1255;25964;-31
2022/11/13 10:43:15;;;;;;;8.20;5.80;;;;;;;;;;108937;1262;22549;-31
2022/11/13 10:45:59;;;;;;;7.90;5.80;;;;;;;;;;108963;1257;22544;-31
2022/11/13 10:48:34;;;;;;;7.20;5.30;;;;;;;;;;108949;1260;25306;-31
2022/11/13 10:51:24;;;;;;;7.60;5.10;;;;;;;;;;108858;1256;22545;-31
2022/11/13 10:53:58;;;;;;;7.10;4.80;;;;;;;;;;108938;1262;22551;-29
2022/11/13 10:56:34;;;;;;;7.00;4.60;;;;;;;;;;108891;1262;22720;-29
2022/11/13 10:59:15;;;;;;;7.80;4.90;;;;;;;;;;108858;1256;22749;-31
2022/11/13 11:01:49;;;;;;;7.00;5.30;;;;;;;;;;108994;1262;22546;-31
2022/11/13 11:04:26;;;;;;;6.80;5.20;;;;;;;;;;108976;1262;22560;-31
2022/11/13 11:07:15;;;;;;;7.10;5.30;;;;;;;;;;109003;1262;22570;-31
2022/11/13 11:09:49;;;;;;;7.90;4.90;;;;;;;;;;108953;1261;22540;-31
2022/11/13 11:12:24;;;;;;;7.30;4.80;;;;;;;;;;108947;1259;23358;-31
2022/11/13 11:15:09;;;;;;;7.30;5.00;;;;;;;;;;108914;1262;22530;-30
2022/11/13 11:17:47;;;;;;;7.00;5.20;;;;;;;;;;108947;1253;22558;-30
2022/11/13 11:20:32;;;;;;;7.50;5.60;;;;;;;;;;108974;1261;22721;-30
2022/11/13 11:23:25;;;;;;;8.30;5.30;;;;;;;;;;108963;1257;22593;-27
2022/11/13 11:26:08;;;;;;;7.20;5.40;;;;;;;;;;108993;1261;24187;-28
2022/11/13 11:28:46;;;;;;;8.10;5.50;;;;;;;;;;109052;1253;22545;-28
2022/11/13 11:31:26;;;;;;;9.30;6.00;;;;;;;;;;109008;1253;22493;-27
2022/11/13 11:34:10;;;;;;;10.50;7.00;;;;;;;;;;109076;1253;22561;-27
2022/11/13 11:36:51;;;;;;;8.40;5.90;;;;;;;;;;108897;1261;25752;-28
2022/11/13 11:39:40;;;;;;;8.70;5.80;;;;;;;;;;108951;1260;22623;-29
2022/11/13 11:42:31;;;;;;;8.20;5.50;;;;;;;;;;108991;1262;23692;-29
2022/11/13 11:45:14;;;;;;;8.50;5.90;;;;;;;;;;108979;1262;22599;-29
2022/11/13 11:47:47;;;;;;;8.60;5.90;;;;;;;;;;109083;1262;22543;-29
2022/11/13 11:50:38;;;;;;;8.60;5.80;;;;;;;;;;108992;1261;22646;-29
2022/11/13 11:53:18;;;;;;;9.10;5.40;;;;;;;;;;108973;1260;22623;-29
2022/11/13 11:56:14;;;;;;;9.60;5.70;;;;;;;;;;109121;1260;22600;-29
2022/11/13 11:59:14;;;;;;;8.40;5.50;;;;;;;;;;108955;1260;22701;-32
2022/11/13 12:02:39;;;;;;;8.80;5.70;;;;;;;;;;109054;1259;22532;-31
2022/11/13 12:05:23;;;;;;;9.30;6.10;;;;;;;;;;108725;1262;22583;-32
2022/11/13 12:08:11;;;;;;;10.20;5.70;;;;;;;;;;109036;1262;22649;-32
2022/11/13 12:10:58;;;;;;;9.50;5.80;;;;;;;;;;109026;1260;22486;-31
2022/11/13 12:13:37;;;;;;;8.70;5.60;;;;;;;;;;109060;1259;22488;-31
2022/11/13 12:16:19;;;;;;;9.00;5.60;;;;;;;;;;109048;1259;22680;-31
2022/11/13 12:19:03;;;;;;;9.50;5.30;;;;;;;;;;109042;1259;22625;-31
2022/11/13 12:21:48;;;;;;;8.30;5.40;;;;;;;;;;108999;1259;22602;-31
2022/11/13 12:24:49;;;;;;;8.50;5.80;;;;;;;;;;109046;1263;22564;-32
2022/11/13 12:27:32;;;;;;;9.40;5.60;;;;;;;;;;109022;1254;22596;-32
2022/11/13 12:30:16;;;;;;;8.00;5.50;;;;;;;;;;109071;1257;22541;-32
2022/11/13 12:33:23;;;;;;;9.40;5.80;;;;;;;;;;109033;1260;22490;-32
2022/11/13 12:35:59;;;;;;;7.70;5.10;;;;;;;;;;109108;1260;22535;-32
2022/11/13 12:38:47;;;;;;;9.00;5.90;;;;;;;;;;109117;1254;22616;-32
2022/11/13 12:41:31;;;;;;;9.10;5.50;;;;;;;;;;109079;1260;22565;-31
2022/11/13 12:44:22;;;;;;;8.30;5.40;;;;;;;;;;109046;1261;22549;-32
2022/11/13 12:46:56;;;;;;;8.10;5.20;;;;;;;;;;109066;1262;22531;-32
2022/11/13 12:49:35;;;;;;;9.40;6.10;;;;;;;;;;109057;1261;25389;-32
2022/11/13 12:52:23;;;;;;;8.10;5.40;;;;;;;;;;109014;1260;24182;-32
2022/11/13 12:55:23;;;;;;;9.10;5.40;;;;;;;;;;109030;1260;23817;-31
2022/11/13 12:57:57;;;;;;;9.10;5.50;;;;;;;;;;109091;1257;22535;-32
2022/11/13 13:00:31;;;;;;;9.80;5.90;;;;;;;;;;109079;1260;22530;-31
2022/11/13 13:03:25;;;;;;;9.80;5.70;;;;;;;;;;109032;1259;22659;-32
2022/11/13 13:06:17;;;;;;;8.70;5.30;;;;;;;;;;109051;1262;22540;-31
2022/11/13 13:09:10;;;;;;;7.90;5.10;;;;;;;;;;109056;1261;22557;-31
2022/11/13 13:11:53;;;;;;;8.30;5.40;;;;;;;;;;109041;1260;22560;-32
2022/11/13 13:15:08;;;;;;;9.00;5.60;;;;;;;;;;109070;1260;22533;-32
2022/11/13 13:17:41;;;;;;;8.50;5.70;;;;;;;;;;109036;1260;25411;-32
2022/11/13 13:20:33;;;;;;;8.30;5.40;;;;;;;;;;109054;1260;22546;-32
2022/11/13 13:23:06;;;;;;;8.70;5.60;;;;;;;;;;109005;1260;22538;-32
2022/11/13 13:25:42;;;;;;;7.70;4.90;;;;;;;;;;109046;1263;22707;-31
2022/11/13 13:28:22;;;;;;;7.60;5.20;;;;;;;;;;108972;1262;22544;-32
2022/11/13 13:31:07;;;;;;;8.80;5.70;;;;;;;;;;109011;1263;22547;-32
2022/11/13 13:33:56;;;;;;;8.80;6.10;;;;;;;;;;109023;1259;22502;-32
2022/11/13 13:36:39;;;;;;;8.10;5.40;;;;;;;;;;109011;1254;23706;-32
2022/11/13 13:39:29;;;;;;;8.20;5.70;;;;;;;;;;109038;1259;22554;-32
2022/11/13 13:42:22;;;;;;;11.90;8.90;;;;;;;;;;109055;1259;22586;-30
2022/11/13 13:45:11;;;;;;;15.30;11.30;;;;;;;;;;108866;1260;22584;-30
2022/11/13 13:47:49;;;;;;;14.60;11.30;;;;;;;;;;108927;1262;22543;-30
2022/11/13 13:50:27;;;;;;;13.70;11.80;;;;;;;;;;108947;1253;22549;-31
2022/11/13 13:53:01;;;;;;;13.80;11.60;;;;;;;;;;108887;1261;22534;-31
2022/11/13 13:55:38;;;;;;;16.20;12.40;;;;;;;;;;109067;1260;22537;-30
2022/11/13 13:58:16;;;;;;;14.20;12.10;;;;;;;;;;109024;1260;25225;-31
2022/11/13 14:01:02;;;;;;;14.60;12.00;;;;;;;;;;109029;1259;22674;-31
2022/11/13 14:03:34;;;;;;;;;;;;;;;;;;109034;1260;26042;-31
2022/11/13 14:06:22;;;;;;;14.50;12.60;;;;;;;;;;109026;1262;22630;-31
2022/11/13 14:08:54;;;;;;;14.20;11.30;;;;;;;;;;109006;1261;22873;-31
2022/11/13 14:11:28;;;;;;;15.30;13.10;;;;;;;;;;108991;1260;22660;-31
2022/11/13 14:14:16;;;;;;;14.50;12.10;;;;;;;;;;109002;1260;22590;-30
2022/11/13 14:16:56;;;;;;;16.10;12.50;;;;;;;;;;109008;1255;22596;-31
2022/11/13 14:19:29;;;;;;;13.80;12.30;;;;;;;;;;109055;1259;22556;-31
2022/11/13 14:22:05;;;;;;;13.80;11.90;;;;;;;;;;108984;1260;22572;-30
2022/11/13 14:24:45;;;;;;;13.20;11.60;;;;;;;;;;109050;1260;22553;-31
2022/11/13 14:27:24;;;;;;;13.90;11.40;;;;;;;;;;109021;1262;22672;-29
2022/11/13 14:29:59;;;;;;;14.00;11.70;;;;;;;;;;109058;1260;22588;-29
2022/11/13 14:32:39;;;;;;;14.60;11.50;;;;;;;;;;109051;1262;22592;-31
2022/11/13 14:35:26;;;;;;;13.70;12.20;;;;;;;;;;109018;1253;22564;-31
2022/11/13 14:37:59;;;;;;;15.10;11.50;;;;;;;;;;109037;1260;22675;-32
2022/11/13 14:40:32;;;;;;;;;;;;;;;;;;109021;1260;22539;-32
2022/11/13 14:43:08;;;;;;;15.20;11.30;;;;;;;;;;109068;1260;24166;-31
2022/11/13 14:45:42;;;;;;;14.30;11.60;;;;;;;;;;108997;1261;23898;-31
2022/11/13 14:48:25;;;;;;;14.90;11.20;;;;;;;;;;109005;1260;22559;-32
2022/11/13 14:51:01;;;;;;;13.80;11.00;;;;;;;;;;109040;1261;22505;-32
2022/11/13 14:53:36;;;;;;;12.80;10.40;;;;;;;;;;109091;1261;22597;-32
2022/11/13 14:56:16;;;;;;;13.90;10.80;;;;;;;;;;109071;1260;22569;-31
2022/11/13 14:58:50;;;;;;;11.80;10.10;;;;;;;;;;109046;1253;22541;-30
2022/11/13 15:01:25;;;;;;;14.10;9.70;;;;;;;;;;108935;1260;24653;-30
2022/11/13 15:04:00;;;;;;;12.50;9.90;;;;;;;;;;109010;1260;22537;-30
2022/11/13 15:06:40;;;;;;;11.30;9.30;;;;;;;;;;108869;1262;22818;-30
2022/11/13 15:09:17;;;;;;;12.40;9.80;;;;;;;;;;109012;1263;22573;-30
2022/11/13 15:11:51;;;;;;;12.70;9.30;;;;;;;;;;108937;1257;22530;-30
2022/11/13 15:14:24;;;;;;;11.70;9.30;;;;;;;;;;108862;1264;22540;-30
2022/11/13 15:16:56;;;;;;;14.20;10.60;;;;;;;;;;109014;1263;22554;-30
2022/11/13 15:19:39;;;;;;;14.30;10.40;;;;;;;;;;109031;1260;22806;-30
2022/11/13 15:22:14;;;;;;;13.90;10.80;;;;;;;;;;108956;1263;23934;-31
2022/11/13 15:24:49;;;;;;;14.80;10.40;;;;;;;;;;109040;1263;25324;-29